createdAt,value
2023-04-15T00:00:12.127Z,93.00
2023-04-15T00:02:41.588Z,93.10
2023-04-15T00:05:11.924Z,92.80
2023-04-15T00:07:41.501Z,93.00
2023-04-15T00:10:11.171Z,93.10
2023-04-15T00:12:40.580Z,93.00
2023-04-15T00:15:11.454Z,93.10
2023-04-15T00:17:40.987Z,93.30
2023-04-15T00:20:11.364Z,93.40
2023-04-15T00:22:40.748Z,93.20
2023-04-15T00:25:10.630Z,93.40
2023-04-15T00:27:40.701Z,93.50
2023-04-15T00:30:10.491Z,93.40
2023-04-15T00:32:39.826Z,93.60
2023-04-15T00:35:12.006Z,93.40
2023-04-15T00:37:41.414Z,93.20
2023-04-15T00:40:15.358Z,93.20
2023-04-15T00:42:44.565Z,93.10
2023-04-15T00:45:14.292Z,93.10
2023-04-15T00:47:47.324Z,93.20
2023-04-15T00:50:16.800Z,93.30
2023-04-15T00:52:46.096Z,93.00
2023-04-15T00:55:15.569Z,93.00
2023-04-15T00:57:46.063Z,93.00
2023-04-15T01:00:15.814Z,93.00
2023-04-15T01:02:45.124Z,92.90
2023-04-15T01:05:14.810Z,92.70
2023-04-15T01:07:44.502Z,92.10
2023-04-15T01:10:14.166Z,92.40
2023-04-15T01:12:43.552Z,92.50
2023-04-15T01:15:13.244Z,92.10
2023-04-15T01:17:44.763Z,92.10
2023-04-15T01:20:14.606Z,92.20
2023-04-15T01:22:43.993Z,92.00
2023-04-15T01:25:20.589Z,92.10
2023-04-15T01:27:50.036Z,91.80
2023-04-15T01:30:19.590Z,91.80
2023-04-15T01:32:48.975Z,91.80
2023-04-15T01:35:18.498Z,91.70
2023-04-15T01:37:48.371Z,91.70
2023-04-15T01:40:17.753Z,91.80
2023-04-15T01:42:47.888Z,91.70
2023-04-15T01:45:17.645Z,91.70
2023-04-15T01:47:47.136Z,91.50
2023-04-15T01:50:16.578Z,91.20
2023-04-15T01:52:49.383Z,91.20
2023-04-15T01:55:18.683Z,91.10
2023-04-15T01:57:48.351Z,91.40
2023-04-15T02:00:18.611Z,91.30
2023-04-15T02:02:51.364Z,91.00
2023-04-15T02:05:20.697Z,91.00
2023-04-15T02:07:50.589Z,90.60
2023-04-15T02:10:19.960Z,90.50
2023-04-15T02:12:49.267Z,90.50
2023-04-15T02:15:18.579Z,90.40
2023-04-15T02:20:24.280Z,90.10
2023-04-15T02:22:53.758Z,90.00
2023-04-15T02:25:23.041Z,89.30
2023-04-15T02:27:52.712Z,89.20
2023-04-15T02:30:39.366Z,89.60
2023-04-15T02:33:08.992Z,88.70
2023-04-15T02:35:40.292Z,88.40
2023-04-15T02:38:10.508Z,88.20
2023-04-15T02:40:39.880Z,88.10
2023-04-15T02:43:09.266Z,87.40
2023-04-15T02:45:38.592Z,87.60
2023-04-15T02:48:08.027Z,87.30
2023-04-15T02:50:38.838Z,87.20
2023-04-15T02:53:08.694Z,87.10
2023-04-15T02:55:37.969Z,86.70
2023-04-15T02:58:07.409Z,86.20
2023-04-15T03:00:37.154Z,86.00
2023-04-15T03:03:07.889Z,86.20
2023-04-15T03:05:39.946Z,85.10
2023-04-15T03:08:09.273Z,84.80
2023-04-15T03:10:38.490Z,85.70
2023-04-15T03:13:07.692Z,85.00
2023-04-15T03:15:37.453Z,84.70
2023-04-15T03:18:06.928Z,83.80
2023-04-15T03:20:38.107Z,83.40
2023-04-15T03:23:07.479Z,83.30
2023-04-15T03:25:38.346Z,83.00
2023-04-15T03:28:08.133Z,82.60
2023-04-15T03:30:37.316Z,83.00
2023-04-15T03:33:06.506Z,82.10
2023-04-15T03:35:36.488Z,82.00
2023-04-15T03:38:05.805Z,81.90
2023-04-15T03:40:35.322Z,81.50
2023-04-15T03:43:04.575Z,81.80
2023-04-15T03:45:33.852Z,81.00
2023-04-15T03:48:16.628Z,80.90
2023-04-15T03:50:47.351Z,81.00
2023-04-15T03:53:17.436Z,80.40
2023-04-15T03:55:46.722Z,80.10
2023-04-15T03:58:15.908Z,79.50
2023-04-15T04:00:45.099Z,79.10
2023-04-15T04:03:14.638Z,78.90
2023-04-15T04:05:45.391Z,78.90
2023-04-15T04:08:17.691Z,78.70
2023-04-15T04:10:46.981Z,78.10
2023-04-15T04:13:16.508Z,78.30
2023-04-15T04:15:45.977Z,77.60
2023-04-15T04:18:15.493Z,78.10
2023-04-15T04:20:45.356Z,77.90
2023-04-15T04:23:14.794Z,77.90
2023-04-15T04:25:44.557Z,77.50
2023-04-15T04:28:13.896Z,76.70
2023-04-15T04:30:43.265Z,76.70
2023-04-15T04:33:12.723Z,76.40
2023-04-15T04:35:42.431Z,76.30
2023-04-15T04:38:12.000Z,75.70
2023-04-15T04:40:41.330Z,75.20
2023-04-15T04:43:11.056Z,75.40
2023-04-15T04:45:40.461Z,76.00
2023-04-15T04:48:11.543Z,76.70
2023-04-15T04:50:40.962Z,77.20
2023-04-15T04:53:10.299Z,76.90
2023-04-15T04:55:39.657Z,76.40
2023-04-15T04:58:08.977Z,75.80
2023-04-15T05:00:39.464Z,76.30
2023-04-15T05:03:09.064Z,75.50
2023-04-15T05:05:40.418Z,75.60
2023-04-15T05:08:10.295Z,75.50
2023-04-15T05:10:39.649Z,76.00
2023-04-15T05:13:08.985Z,76.00
2023-04-15T05:15:40.725Z,76.40
2023-04-15T05:18:10.057Z,76.00
2023-04-15T05:20:39.906Z,75.40
2023-04-15T05:23:09.679Z,75.00
2023-04-15T05:25:39.018Z,75.50
2023-04-15T05:28:08.432Z,75.20
2023-04-15T05:30:37.704Z,75.20
2023-04-15T05:33:07.162Z,74.70
2023-04-15T05:35:36.635Z,74.50
2023-04-15T05:38:05.916Z,73.80
2023-04-15T05:40:35.295Z,73.90
2023-04-15T05:43:04.644Z,74.00
2023-04-15T05:45:34.188Z,73.70
2023-04-15T05:48:03.498Z,73.70
2023-04-15T05:50:32.829Z,73.60
2023-04-15T05:53:03.008Z,72.10
2023-04-15T05:55:32.518Z,71.80
2023-04-15T05:58:01.842Z,72.30
2023-04-15T06:00:32.163Z,73.60
2023-04-15T06:03:01.967Z,72.60
2023-04-15T06:05:31.283Z,72.40
2023-04-15T06:08:00.504Z,72.30
2023-04-15T06:10:30.180Z,72.30
2023-04-15T06:12:59.490Z,72.30
2023-04-15T06:15:28.840Z,72.00
2023-04-15T06:17:58.271Z,71.70
2023-04-15T06:20:28.926Z,71.90
2023-04-15T06:22:59.067Z,71.30
2023-04-15T06:25:28.492Z,71.20
2023-04-15T06:27:57.688Z,70.90
2023-04-15T06:30:26.827Z,71.40
2023-04-15T06:32:57.474Z,70.70
2023-04-15T06:35:26.963Z,70.70
2023-04-15T06:37:56.170Z,70.70
2023-04-15T06:40:26.238Z,71.20
2023-04-15T06:42:55.497Z,70.80
2023-04-15T06:45:24.743Z,70.50
2023-04-15T06:47:53.985Z,70.40
2023-04-15T06:50:23.219Z,70.40
2023-04-15T06:52:52.386Z,70.80
2023-04-15T06:55:21.809Z,70.40
2023-04-15T06:57:51.036Z,69.70
2023-04-15T07:00:21.253Z,70.70
2023-04-15T07:02:50.559Z,69.60
2023-04-15T07:05:19.996Z,69.30
2023-04-15T07:07:49.288Z,69.00
2023-04-15T07:10:18.553Z,68.00
2023-04-15T07:12:47.685Z,67.90
2023-04-15T07:15:16.889Z,67.90
2023-04-15T07:17:46.178Z,68.60
2023-04-15T07:20:16.064Z,68.20
2023-04-15T07:22:46.007Z,68.20
2023-04-15T07:25:15.340Z,67.80
2023-04-15T07:27:44.578Z,67.70
2023-04-15T07:30:14.534Z,67.20
2023-04-15T07:32:44.648Z,66.60
2023-04-15T07:35:14.491Z,65.90
2023-04-15T07:37:44.411Z,65.80
2023-04-15T07:40:15.598Z,65.70
2023-04-15T07:54:34.172Z,68.50
2023-04-15T07:57:04.128Z,65.90
2023-04-15T07:59:34.501Z,65.40
2023-04-15T08:02:04.354Z,65.00
2023-04-15T08:04:34.982Z,64.80
2023-04-15T08:07:06.016Z,64.70
2023-04-15T08:09:35.278Z,64.90
2023-04-15T08:12:05.362Z,64.30
2023-04-15T08:14:34.549Z,63.80
2023-04-15T08:17:03.656Z,64.30
2023-04-15T08:19:33.163Z,64.20
2023-04-15T08:22:02.463Z,64.40
2023-04-15T08:24:33.492Z,64.70
2023-04-15T08:27:05.437Z,64.70
2023-04-15T08:29:35.892Z,64.40
2023-04-15T08:32:05.318Z,65.10
2023-04-15T08:34:34.669Z,65.40
2023-04-15T08:37:03.848Z,65.40
2023-04-15T08:39:33.007Z,65.70
2023-04-15T08:42:10.018Z,65.30
2023-04-15T08:44:39.922Z,65.40
2023-04-15T08:47:14.407Z,65.40
2023-04-15T08:49:45.925Z,65.70
2023-04-15T08:52:15.339Z,66.10
2023-04-15T08:54:44.849Z,66.40
2023-04-15T08:57:15.205Z,66.30
2023-04-15T08:59:45.567Z,66.10
2023-04-15T09:02:15.181Z,66.20
2023-04-15T09:04:44.412Z,66.30
2023-04-15T09:07:13.571Z,65.90
2023-04-15T09:09:43.225Z,65.70
2023-04-15T09:12:13.617Z,66.00
2023-04-15T09:14:49.236Z,64.90
2023-04-15T09:17:27.531Z,64.60
2023-04-15T09:20:23.052Z,64.70
2023-04-15T09:22:53.651Z,65.00
2023-04-15T09:25:25.905Z,64.80
2023-04-15T09:28:02.147Z,64.60
2023-04-15T09:30:32.311Z,64.30
2023-04-15T09:33:05.825Z,64.40
2023-04-15T09:35:38.760Z,65.00
2023-04-15T09:38:12.262Z,65.20
2023-04-15T09:40:43.199Z,65.40
2023-04-15T09:43:15.636Z,65.60
2023-04-15T09:45:53.024Z,65.80
2023-04-15T09:48:32.157Z,66.30
2023-04-15T09:51:02.708Z,66.80
2023-04-15T09:53:36.071Z,67.30
2023-04-15T09:56:08.768Z,67.60
2023-04-15T09:58:39.833Z,67.60
2023-04-15T10:01:10.074Z,67.70
2023-04-15T10:03:43.285Z,68.00
2023-04-15T10:06:13.006Z,68.10
2023-04-15T10:08:43.738Z,68.30
2023-04-15T10:11:13.905Z,68.40
2023-04-15T10:13:43.660Z,68.40
2023-04-15T10:16:23.016Z,68.50
2023-04-15T10:18:59.622Z,68.80
2023-04-15T10:21:31.786Z,69.10
2023-04-15T10:24:03.461Z,69.30
2023-04-15T10:26:33.290Z,70.40
2023-04-15T10:29:03.554Z,69.90
2023-04-15T10:31:33.476Z,70.00
2023-04-15T10:34:06.202Z,70.40
2023-04-15T10:36:36.095Z,70.40
2023-04-15T10:39:38.427Z,70.50
2023-04-15T10:42:36.865Z,70.50
2023-04-15T10:45:19.011Z,70.60
2023-04-15T10:47:52.855Z,70.70
2023-04-15T10:50:23.320Z,70.70
2023-04-15T10:52:54.561Z,71.20
2023-04-15T10:55:32.917Z,71.30
2023-04-15T10:58:04.167Z,71.40
2023-04-15T11:00:38.591Z,71.70
2023-04-15T11:03:11.246Z,71.70
2023-04-15T11:05:55.109Z,71.80
2023-04-15T11:08:59.791Z,72.00
2023-04-15T11:12:11.440Z,72.30
2023-04-15T11:14:44.459Z,72.20
2023-04-15T11:17:13.977Z,72.50
2023-04-15T11:19:43.279Z,72.60
2023-04-15T11:22:13.530Z,72.80
2023-04-15T11:24:51.781Z,73.00
2023-04-15T11:27:25.587Z,73.20
2023-04-15T11:29:54.920Z,73.60
2023-04-15T11:32:24.544Z,74.10
2023-04-15T11:34:54.515Z,73.90
2023-04-15T11:37:31.724Z,73.20
2023-04-15T11:40:00.990Z,72.70
2023-04-15T11:42:42.811Z,73.30
2023-04-15T11:45:18.354Z,73.60
2023-04-15T11:47:47.712Z,74.00
2023-04-15T11:50:23.364Z,74.10
2023-04-15T11:53:02.395Z,73.90
2023-04-15T11:55:33.147Z,73.30
2023-04-15T11:58:23.576Z,73.30
2023-04-15T12:01:03.042Z,73.00
2023-04-15T12:03:44.948Z,72.90
2023-04-15T12:06:28.775Z,72.80
2023-04-15T12:09:03.638Z,73.00
2023-04-15T12:11:37.564Z,73.10
2023-04-15T12:14:23.731Z,73.20
2023-04-15T12:16:59.421Z,73.00
2023-04-15T12:19:40.129Z,73.00
2023-04-15T12:22:17.274Z,73.30
2023-04-15T12:24:49.216Z,73.30
2023-04-15T12:27:19.006Z,73.50
2023-04-15T12:29:48.294Z,73.80
2023-04-15T12:32:21.824Z,74.10
2023-04-15T12:34:56.252Z,74.50
2023-04-15T12:37:25.600Z,74.90
2023-04-15T12:39:55.396Z,75.20
2023-04-15T12:42:24.681Z,75.50
2023-04-15T12:44:53.996Z,76.00
2023-04-15T12:47:23.355Z,76.20
2023-04-15T12:49:52.657Z,76.60
2023-04-15T12:52:23.084Z,76.90
2023-04-15T12:54:52.486Z,77.10
2023-04-15T12:57:21.734Z,77.50
2023-04-15T12:59:51.062Z,77.60
2023-04-15T13:02:22.292Z,77.90
2023-04-15T13:04:51.798Z,78.20
2023-04-15T13:07:21.392Z,78.30
2023-04-15T13:09:50.793Z,78.50
2023-04-15T13:12:20.139Z,78.80
2023-04-15T13:14:49.402Z,79.00
2023-04-15T13:17:21.373Z,79.00
2023-04-15T13:19:50.853Z,79.30
2023-04-15T13:22:20.532Z,79.20
2023-04-15T13:24:50.594Z,79.60
2023-04-15T13:27:19.844Z,79.70
2023-04-15T13:29:49.107Z,79.90
2023-04-15T13:32:18.399Z,80.20
2023-04-15T13:34:47.655Z,80.20
2023-04-15T13:37:17.350Z,80.50
2023-04-15T13:39:46.796Z,80.50
2023-04-15T13:42:16.338Z,80.80
2023-04-15T13:44:45.606Z,80.90
2023-04-15T13:47:17.056Z,81.10
2023-04-15T13:49:46.416Z,81.10
2023-04-15T13:52:15.784Z,81.40
2023-04-15T13:54:45.101Z,81.30
2023-04-15T13:57:15.439Z,81.60
2023-04-15T13:59:45.237Z,81.90
2023-04-15T14:02:14.606Z,82.00
2023-04-15T14:04:43.970Z,81.60
2023-04-15T14:07:13.263Z,81.40
2023-04-15T14:09:43.346Z,81.70
2023-04-15T14:12:13.136Z,81.80
2023-04-15T14:14:42.714Z,81.80
2023-04-15T14:17:12.142Z,81.70
2023-04-15T14:19:41.676Z,81.70
2023-04-15T14:22:11.090Z,81.70
2023-04-15T14:24:40.463Z,81.50
2023-04-15T14:27:09.810Z,81.40
2023-04-15T14:29:39.344Z,81.50
2023-04-15T14:32:11.372Z,81.40
2023-04-15T14:34:42.845Z,81.30
2023-04-15T14:37:12.339Z,81.30
2023-04-15T14:39:41.985Z,82.10
2023-04-15T14:42:11.444Z,81.40
2023-04-15T14:44:40.808Z,81.90
2023-04-15T14:47:10.061Z,81.60
2023-04-15T14:49:39.856Z,81.40
2023-04-15T14:52:09.164Z,81.40
2023-04-15T14:54:38.429Z,81.50
2023-04-15T14:57:08.691Z,81.60
2023-04-15T14:59:37.929Z,81.40
2023-04-15T15:02:07.523Z,81.50
2023-04-15T15:04:37.577Z,81.80
2023-04-15T15:07:07.071Z,82.10
2023-04-15T15:09:36.506Z,81.90
2023-04-15T15:12:05.987Z,82.20
2023-04-15T15:14:35.378Z,82.00
2023-04-15T15:17:04.768Z,82.30
2023-04-15T15:19:34.312Z,82.20
2023-04-15T15:22:04.673Z,82.50
2023-04-15T15:24:34.019Z,82.40
2023-04-15T15:27:04.040Z,82.70
2023-04-15T15:29:33.309Z,83.00
2023-04-15T15:32:02.735Z,83.00
2023-04-15T15:34:32.047Z,82.80
2023-04-15T15:37:02.402Z,83.10
2023-04-15T15:39:31.872Z,83.40
2023-04-15T15:42:01.191Z,83.10
2023-04-15T15:44:31.223Z,83.40
2023-04-15T15:47:01.647Z,83.00
2023-04-15T15:49:31.119Z,82.70
2023-04-15T15:52:00.868Z,82.70
2023-04-15T15:54:30.768Z,82.50
2023-04-15T15:57:00.145Z,82.30
2023-04-15T15:59:29.489Z,81.90
2023-04-15T16:01:59.098Z,81.90
2023-04-15T16:04:28.802Z,81.90
2023-04-15T16:06:58.361Z,81.80
2023-04-15T16:09:27.685Z,81.80
2023-04-15T16:11:57.043Z,82.00
2023-04-15T16:14:28.083Z,82.30
2023-04-15T16:16:57.423Z,82.60
2023-04-15T16:19:26.807Z,83.00
2023-04-15T16:21:56.794Z,83.00
2023-04-15T16:24:26.809Z,83.30
2023-04-15T16:26:56.100Z,83.60
2023-04-15T16:29:25.385Z,83.60
2023-04-15T16:31:54.803Z,83.90
2023-04-15T16:34:24.140Z,84.10
2023-04-15T16:36:53.384Z,84.20
2023-04-15T16:39:24.228Z,84.20
2023-04-15T16:41:53.513Z,84.60
2023-04-15T16:44:22.849Z,84.60
2023-04-15T16:46:52.151Z,85.20
2023-04-15T16:49:21.597Z,85.00
2023-04-15T16:51:51.708Z,85.10
2023-04-15T16:54:22.324Z,85.30
2023-04-15T16:56:52.058Z,85.30
2023-04-15T16:59:21.221Z,85.50
2023-04-15T17:01:50.535Z,85.60
2023-04-15T17:04:19.920Z,85.60
2023-04-15T17:06:49.386Z,85.80
2023-04-15T17:09:18.960Z,86.20
2023-04-15T17:11:48.166Z,86.00
2023-04-15T17:14:17.369Z,86.10
2023-04-15T17:16:47.387Z,86.20
2023-04-15T17:19:16.626Z,86.10
2023-04-15T17:21:45.772Z,86.30
2023-04-15T17:24:15.169Z,86.40
2023-04-15T17:26:44.784Z,86.10
2023-04-15T17:29:14.505Z,86.00
2023-04-15T17:31:43.990Z,86.40
2023-04-15T17:34:15.909Z,86.50
2023-04-15T17:36:45.512Z,86.30
2023-04-15T17:39:15.979Z,86.70
2023-04-15T17:41:45.599Z,86.40
2023-04-15T17:44:14.784Z,86.50
2023-04-15T17:46:44.122Z,86.60
2023-04-15T17:49:13.326Z,86.60
2023-04-15T17:51:42.553Z,86.50
2023-04-15T17:54:12.073Z,86.50
2023-04-15T17:56:41.316Z,86.80
2023-04-15T17:59:10.883Z,87.00
2023-04-15T18:01:40.192Z,87.00
2023-04-15T18:04:10.538Z,87.20
2023-04-15T18:06:41.000Z,87.20
2023-04-15T18:09:10.143Z,87.30
2023-04-15T18:11:41.052Z,87.30
2023-04-15T18:14:11.236Z,87.40
2023-04-15T18:16:41.447Z,87.50
2023-04-15T18:19:11.892Z,87.40
2023-04-15T18:21:41.135Z,87.40
2023-04-15T18:24:10.393Z,87.30
2023-04-15T18:26:39.882Z,87.50
2023-04-15T18:29:09.167Z,87.40
2023-04-15T18:31:38.442Z,87.60
2023-04-15T18:34:08.164Z,87.70
2023-04-15T18:36:37.500Z,87.90
2023-04-15T18:39:07.092Z,88.60
2023-04-15T18:41:36.398Z,87.90
2023-04-15T18:44:05.575Z,87.90
2023-04-15T18:46:34.922Z,88.00
2023-04-15T18:49:05.238Z,87.90
2023-04-15T18:51:34.590Z,87.70
2023-04-15T18:54:04.201Z,87.80
2023-04-15T18:56:33.527Z,87.60
2023-04-15T18:59:19.069Z,87.30
2023-04-15T19:01:52.771Z,87.50
2023-04-15T19:04:22.296Z,87.40
2023-04-15T19:06:51.665Z,87.20
2023-04-15T19:09:20.946Z,87.40
2023-04-15T19:11:50.135Z,87.40
2023-04-15T19:14:19.965Z,87.40
2023-04-15T19:16:49.266Z,87.50
2023-04-15T19:19:18.475Z,87.40
2023-04-15T19:21:50.705Z,87.80
2023-04-15T19:24:20.859Z,87.80
2023-04-15T19:26:52.112Z,87.90
2023-04-15T19:29:21.570Z,87.80
2023-04-15T19:31:50.786Z,87.80
2023-04-15T19:34:19.983Z,88.20
2023-04-15T19:36:49.252Z,88.20
2023-04-15T19:39:18.830Z,88.00
2023-04-15T19:41:48.268Z,88.10
2023-04-15T19:44:17.490Z,88.00
2023-04-15T19:46:50.789Z,88.40
2023-04-15T19:49:21.116Z,88.50
2023-04-15T19:51:51.660Z,88.50
2023-04-15T19:54:21.348Z,88.70
2023-04-15T19:56:50.664Z,88.70
2023-04-15T19:59:19.964Z,89.00
2023-04-15T20:01:49.424Z,89.20
2023-04-15T20:04:18.846Z,89.10
2023-04-15T20:06:48.157Z,89.20
2023-04-15T20:09:17.646Z,89.10
2023-04-15T20:12:47.822Z,89.30
2023-04-15T20:14:36.909Z,89.30
2023-04-15T20:17:06.362Z,89.20
2023-04-15T20:19:35.624Z,89.30
2023-04-15T20:22:04.933Z,89.40
2023-04-15T20:24:34.209Z,89.60
2023-04-15T20:27:04.877Z,89.90
2023-04-15T20:29:34.421Z,89.80
2023-04-15T20:32:03.698Z,89.80
2023-04-15T20:34:33.312Z,89.60
2023-04-15T20:37:02.648Z,90.00
2023-04-15T20:39:32.182Z,90.00
2023-04-15T20:42:02.558Z,90.00
2023-04-15T20:44:32.016Z,90.00
2023-04-15T20:47:01.553Z,90.00
2023-04-15T20:49:35.660Z,90.10
2023-04-15T20:52:09.435Z,90.20
2023-04-15T20:54:39.006Z,90.20
2023-04-15T20:57:08.263Z,90.10
2023-04-15T20:59:37.541Z,90.20
2023-04-15T21:02:07.030Z,90.20
2023-04-15T21:04:36.823Z,90.20
2023-04-15T21:07:06.193Z,90.30
2023-04-15T21:09:35.499Z,90.30
2023-04-15T21:12:04.751Z,90.30
2023-04-15T21:14:35.975Z,90.30
2023-04-15T21:17:10.194Z,90.40
2023-04-15T21:19:41.419Z,90.60
2023-04-15T21:22:11.004Z,90.30
2023-04-15T21:24:40.173Z,90.30
2023-04-15T21:27:12.116Z,90.30
2023-04-15T21:29:41.897Z,90.50
2023-04-15T21:32:11.670Z,90.60
2023-04-15T21:34:40.964Z,90.60
2023-04-15T21:37:10.248Z,90.80
2023-04-15T21:39:39.402Z,90.90
2023-04-15T21:42:09.664Z,90.70
2023-04-15T21:44:38.948Z,90.70
2023-04-15T21:47:08.158Z,90.80
2023-04-15T21:49:37.614Z,90.80
2023-04-15T21:52:07.005Z,90.90
2023-04-15T21:54:38.979Z,91.30
2023-04-15T21:57:08.328Z,91.00
2023-04-15T21:59:37.502Z,91.00
2023-04-15T22:02:06.940Z,91.10
2023-04-15T22:04:36.593Z,91.00
2023-04-15T22:07:05.840Z,90.90
2023-04-15T22:09:35.129Z,91.10
2023-04-15T22:12:06.554Z,91.20
2023-04-15T22:14:35.741Z,91.20
2023-04-15T22:17:04.993Z,91.00
2023-04-15T22:19:34.241Z,91.20
2023-04-15T22:22:03.441Z,91.30
2023-04-15T22:24:39.873Z,91.40
2023-04-15T22:27:10.347Z,91.50
2023-04-15T22:29:39.550Z,91.60
2023-04-15T22:32:11.475Z,91.70
2023-04-15T22:34:40.653Z,91.70
2023-04-15T22:37:09.788Z,91.70
2023-04-15T22:39:39.003Z,91.60
2023-04-15T22:42:08.182Z,91.70
2023-04-15T22:44:37.460Z,91.70
2023-04-15T22:47:06.833Z,91.70
2023-04-15T22:49:37.216Z,91.50
2023-04-15T22:52:07.932Z,91.70
2023-04-15T22:54:38.566Z,91.60
2023-04-15T22:57:07.824Z,91.60
2023-04-15T22:59:36.972Z,91.70
2023-04-15T23:02:06.241Z,91.70
2023-04-15T23:04:36.171Z,91.80
2023-04-15T23:07:06.180Z,91.90
2023-04-15T23:09:35.428Z,91.90
2023-04-15T23:12:05.172Z,91.90
2023-04-15T23:14:34.512Z,92.00
2023-04-15T23:17:03.754Z,92.30
2023-04-15T23:19:32.901Z,92.00
2023-04-15T23:22:02.190Z,91.90
2023-04-15T23:24:31.545Z,92.00
2023-04-15T23:27:00.757Z,92.00
2023-04-15T23:29:29.990Z,92.20
2023-04-15T23:31:59.595Z,92.10
2023-04-15T23:34:28.832Z,92.20
2023-04-15T23:36:58.016Z,92.20
2023-04-15T23:39:31.073Z,92.20
2023-04-15T23:42:00.319Z,92.30
2023-04-15T23:44:29.572Z,92.30
2023-04-15T23:46:58.757Z,92.40
2023-04-15T23:49:28.049Z,92.40
2023-04-15T23:51:58.122Z,92.30
2023-04-15T23:54:27.681Z,92.30
2023-04-15T23:56:57.415Z,92.40
2023-04-15T23:59:26.840Z,92.30
